Terminal Aerodrome Forecast
Issued by NWS Twin Cities, MN

Home | Current Version | Previous Version | Graphics & Text | Print | Product List | Glossary On
Versions: 1 2 3 4 5 6 7 8 9 10 11 12 13 14 15 16 17 18 19 20 21 22
075
FTUS43 KMPX 162341
TAFSTC
TAF
KSTC 162341Z 1700/1724 03006KT 3SM TSRA BR SCT008 OVC015CB
      TEMPO 1701/1704 1/2SM TSRA OVC010CB
     FM170500 04010G15KT 3SM -SHRA BR VCTS OVC007CB
     FM170900 35010KT 3SM -SHRA BR OVC005
     FM171300 32013G20KT 3SM -SHRA BR OVC003
     FM171800 32015G22KT 6SM BR VCSH OVC007=

USA.gov is the U.S. government's official web portal to all federal, state and local government web resources and services.